Hannover, Germany

12:45 PM CET on February 10, 2016 (GMT +0100)
Garten im Dorf | | Change Station
CLOSE
Current Station
Personal Weather Station
Location: Langenhagen, NIEDERSACHSEN
Elevation: 180 ft
Nearby Weather Stations

Elev 180 ft 52.45 °N, 9.65 °E | Updated 11 seconds ago

Mostly Cloudy
Mostly Cloudy
39.7 °F
Feels Like 36 °F
N
5.1
Wind Variable Wind from SW
Gusts 7.4 mph

Today
High -- | Low -- °F
--% Chance of Precip.
Yesterday
High -- | Low -- °F
Precip. -- in
Pressure 29.27 in
Visibility 6.2 miles
Clouds Mostly Cloudy 1500 ft
Windchill 36 °F
Dew Point 36 °F
Humidity 85%
Rainfall 0.04 in
Snow Depth Not available.
7:48 AM 5:23 PM
Waxing Crescent, 5% visible
METAR EDDV 101120Z 23011KT 190V250 9999 BKN015 04/02 Q0991 TEMPO BKN008
Pressure 29.27 in
Visibility 6.2 miles
Clouds Mostly Cloudy 1500 ft
Windchill 36 °F
Dew Point 36 °F
Humidity 85%
Rainfall 0.04 in
Snow Depth Not available.
7:48 AM 5:23 PM
Waxing Crescent, 5% visible
METAR EDDV 101120Z 23011KT 190V250 9999 BKN015 04/02 Q0991 TEMPO BKN008

10-Day Weather Forecast

Almanac

Astronomy

Feb. 10, 2016 Rise Set
Actual Time
Civil Twilight
Nautical Twilight
Astronomical Twilight
Moon
Length of Visible Light
Length of Day
Tomorrow will be .
, % of the Moon is Illuminated

Today's Extremes

Country Highs Country Lows

Community

WunderPhotos

Upload Photos

1,891,830 photos uploaded!

WunderBlog® & News

Nearby

Air Quality

  Air Quality AQ Index Pollutant
Not available.

Snow Depth

Station Depth Elevation

Earthquake Activity

City Distance Mag. Time & Date
Minimum magnitude displayed is 2.5.

Coastal Water Temperatures

Place Temperature

Stations

Nearby Weather Stations

Station Location Temp. Windchill Dew Point Humidity Wind Precip. Elev Updated Type